createdAt,value
2022-09-15T00:01:44.945Z,99151.59
2022-09-15T00:04:48.510Z,99152.25
2022-09-15T00:07:51.283Z,99157.03
2022-09-15T00:10:58.360Z,99157.41
2022-09-15T00:14:02.503Z,99159.06
2022-09-15T00:17:05.674Z,99166.38
2022-09-15T00:20:08.932Z,99172.69
2022-09-15T00:23:13.761Z,99170.94
2022-09-15T00:26:19.138Z,99169.97
2022-09-15T00:29:22.073Z,99178.34
2022-09-15T00:32:25.197Z,99186.50
2022-09-15T00:35:28.121Z,99183.09
2022-09-15T00:38:31.368Z,99184.94
2022-09-15T00:41:34.613Z,99173.25
2022-09-15T00:44:37.060Z,99178.81
2022-09-15T00:47:40.150Z,99179.59
2022-09-15T00:50:47.604Z,99169.56
2022-09-15T00:53:50.888Z,99176.19
2022-09-15T00:56:55.597Z,99181.91
2022-09-15T01:00:00.703Z,99181.03
2022-09-15T01:03:03.930Z,99178.31
2022-09-15T01:06:16.070Z,99181.91
2022-09-15T01:09:46.669Z,99181.12
2022-09-15T01:12:49.712Z,99182.97
2022-09-15T01:16:13.868Z,99179.38
2022-09-15T01:19:23.110Z,99180.16
2022-09-15T01:22:28.412Z,99183.66
2022-09-15T01:25:56.425Z,99177.16
2022-09-15T01:29:17.510Z,99184.34
2022-09-15T01:32:51.136Z,99183.66
2022-09-15T01:36:01.703Z,99178.91
2022-09-15T01:39:16.542Z,99171.50
2022-09-15T01:42:20.154Z,99179.88
2022-09-15T01:45:30.001Z,99182.31
2022-09-15T01:48:34.788Z,99179.69
2022-09-15T01:51:38.039Z,99181.53
2022-09-15T01:54:49.082Z,99178.53
2022-09-15T01:57:52.208Z,99159.44
2022-09-15T02:01:07.143Z,99165.00
2022-09-15T02:04:23.235Z,99165.88
2022-09-15T02:07:38.111Z,99175.81
2022-09-15T02:10:51.108Z,99166.84
2022-09-15T02:14:14.220Z,99167.91
2022-09-15T02:17:19.522Z,99153.88
2022-09-15T02:20:34.291Z,99152.63
2022-09-15T02:23:41.267Z,99140.84
2022-09-15T02:26:44.458Z,99131.63
2022-09-15T02:29:48.881Z,99125.28
2022-09-15T02:33:01.168Z,99124.41
2022-09-15T02:36:04.297Z,99129.09
2022-09-15T02:39:10.232Z,99126.25
2022-09-15T02:42:13.358Z,99127.25
2022-09-15T02:45:15.913Z,99121.69
2022-09-15T02:48:18.866Z,99135.22
2022-09-15T02:51:21.855Z,99132.69
2022-09-15T02:54:24.766Z,99138.81
2022-09-15T02:57:27.239Z,99152.53
2022-09-15T03:00:31.176Z,99148.94
2022-09-15T03:03:34.583Z,99153.00
2022-09-15T03:06:37.384Z,99139.13
2022-09-15T03:09:39.907Z,99141.41
2022-09-15T03:12:45.040Z,99142.38
2022-09-15T03:15:47.758Z,99142.09
2022-09-15T03:18:51.377Z,99139.94
2022-09-15T03:21:54.118Z,99145.00
2022-09-15T03:24:57.058Z,99136.81
2022-09-15T03:27:59.659Z,99126.91
2022-09-15T03:31:03.583Z,99135.34
2022-09-15T03:34:06.507Z,99138.16
2022-09-15T03:37:09.386Z,99147.69
2022-09-15T03:40:14.533Z,99143.84
2022-09-15T03:43:18.822Z,99151.59
2022-09-15T03:46:21.384Z,99147.22
2022-09-15T03:49:25.340Z,99152.38
2022-09-15T03:52:31.422Z,99149.22
2022-09-15T03:55:34.338Z,99150.53
2022-09-15T03:58:37.578Z,99157.75
2022-09-15T04:01:40.500Z,99159.22
2022-09-15T04:04:43.512Z,99156.16
2022-09-15T04:07:46.016Z,99158.16
2022-09-15T04:10:48.944Z,99152.12
2022-09-15T04:13:52.560Z,99154.75
2022-09-15T04:16:55.446Z,99158.16
2022-09-15T04:19:58.177Z,99160.78
2022-09-15T04:23:01.253Z,99172.38
2022-09-15T04:26:06.937Z,99173.03
2022-09-15T04:29:15.126Z,99174.78
2022-09-15T04:32:18.365Z,99170.13
2022-09-15T04:35:22.010Z,99171.63
2022-09-15T04:38:24.573Z,99172.50
2022-09-15T04:41:28.226Z,99167.31
2022-09-15T04:44:30.750Z,99162.37
2022-09-15T04:47:33.497Z,99168.59
2022-09-15T04:50:36.096Z,99173.75
2022-09-15T04:53:39.625Z,99180.25
2022-09-15T04:56:42.233Z,99162.37
2022-09-15T04:59:44.924Z,99186.28
2022-09-15T05:02:47.387Z,99179.78
2022-09-15T05:05:50.205Z,99183.13
2022-09-15T05:08:55.037Z,99182.16
2022-09-15T05:11:57.895Z,99180.22
2022-09-15T05:15:00.363Z,99187.41
2022-09-15T05:18:03.263Z,99188.38
2022-09-15T05:21:06.758Z,99190.31
2022-09-15T05:24:09.800Z,99193.03
2022-09-15T05:27:12.406Z,99191.28
2022-09-15T05:30:36.774Z,99193.41
2022-09-15T05:33:37.710Z,99211.22
2022-09-15T05:36:40.553Z,99214.34
2022-09-15T05:39:43.038Z,99221.97
2022-09-15T05:42:46.459Z,99212.38
2022-09-15T05:45:55.643Z,99211.88
2022-09-15T05:48:58.745Z,99219.09
2022-09-15T05:52:02.046Z,99209.47
2022-09-15T05:55:05.122Z,99210.56
2022-09-15T05:58:08.056Z,99215.13
2022-09-15T06:01:17.195Z,99225.09
2022-09-15T06:04:20.466Z,99227.50
2022-09-15T06:07:23.696Z,99230.34
2022-09-15T06:10:26.419Z,99222.75
2022-09-15T06:13:29.019Z,99221.78
2022-09-15T06:16:33.710Z,99230.34
2022-09-15T06:19:36.661Z,99235.88
2022-09-15T06:22:39.611Z,99243.25
2022-09-15T06:25:42.186Z,99247.13
2022-09-15T06:28:50.573Z,99245.75
2022-09-15T06:31:53.115Z,99245.22
2022-09-15T06:34:56.128Z,99253.66
2022-09-15T06:37:58.906Z,99259.50
2022-09-15T06:41:02.109Z,99255.53
2022-09-15T06:44:04.732Z,99271.13
2022-09-15T06:47:07.781Z,99272.41
2022-09-15T06:50:10.436Z,99270.56
2022-09-15T06:53:13.375Z,99276.13
2022-09-15T06:56:17.966Z,99302.41
2022-09-15T06:59:24.686Z,99307.00
2022-09-15T07:02:27.369Z,99301.91
2022-09-15T07:05:30.563Z,99309.00
2022-09-15T07:08:33.729Z,99312.16
2022-09-15T07:11:36.622Z,99317.53
2022-09-15T07:14:39.208Z,99322.13
2022-09-15T07:17:42.153Z,99333.72
2022-09-15T07:20:46.129Z,99334.16
2022-09-15T07:23:49.508Z,99330.94
2022-09-15T07:26:52.160Z,99312.78
2022-09-15T07:29:55.252Z,99319.12
2022-09-15T07:32:57.742Z,99317.28
2022-09-15T07:36:02.477Z,99315.03
2022-09-15T07:39:05.555Z,99310.22
2022-09-15T07:42:08.521Z,99318.06
2022-09-15T07:45:11.791Z,99314.53
2022-09-15T07:48:14.759Z,99313.84
2022-09-15T07:51:18.037Z,99307.91
2022-09-15T07:54:22.895Z,99312.75
2022-09-15T07:57:27.285Z,99310.59
2022-09-15T08:00:30.368Z,99310.81
2022-09-15T08:03:33.583Z,99318.69
2022-09-15T08:06:36.993Z,99317.97
2022-09-15T08:09:40.416Z,99325.47
2022-09-15T08:12:42.901Z,99310.53
2022-09-15T08:15:46.376Z,99302.28
2022-09-15T08:18:49.469Z,99295.50
2022-09-15T08:21:52.262Z,99298.13
2022-09-15T08:24:54.764Z,99297.78
2022-09-15T08:27:59.497Z,99299.81
2022-09-15T08:31:06.674Z,99308.94
2022-09-15T08:34:11.606Z,99306.34
2022-09-15T08:37:14.218Z,99297.97
2022-09-15T08:40:22.124Z,99283.13
2022-09-15T08:43:26.540Z,99285.66
2022-09-15T08:46:37.708Z,99297.16
2022-09-15T08:49:53.619Z,99286.66
2022-09-15T08:53:20.325Z,99278.56
2022-09-15T08:56:22.936Z,99277.56
2022-09-15T08:59:30.951Z,99278.78
2022-09-15T09:02:58.920Z,99285.47
2022-09-15T09:06:21.181Z,99292.66
2022-09-15T09:09:44.691Z,99289.59
2022-09-15T09:12:54.164Z,99268.47
2022-09-15T09:16:09.464Z,99253.59
2022-09-15T09:19:28.027Z,99252.03
2022-09-15T09:22:36.171Z,99246.19
2022-09-15T09:25:40.744Z,99251.50
2022-09-15T09:28:54.721Z,99251.00
2022-09-15T09:31:58.096Z,99250.59
2022-09-15T09:35:18.802Z,99244.22
2022-09-15T09:38:26.266Z,99234.59
2022-09-15T09:41:36.188Z,99233.09
2022-09-15T09:44:40.368Z,99230.38
2022-09-15T09:47:43.195Z,99228.88
2022-09-15T09:50:47.941Z,99228.88
2022-09-15T09:53:53.932Z,99218.66
2022-09-15T09:57:11.515Z,99209.13
2022-09-15T10:00:34.333Z,99204.91
2022-09-15T10:03:38.850Z,99201.03
2022-09-15T10:06:42.582Z,99185.44
2022-09-15T10:09:53.653Z,99183.69
2022-09-15T10:12:56.644Z,99172.22
2022-09-15T10:16:01.221Z,99176.06
2022-09-15T10:19:03.885Z,99182.44
2022-09-15T10:22:06.693Z,99187.69
2022-09-15T10:25:21.641Z,99191.78
2022-09-15T10:28:26.442Z,99196.53
2022-09-15T10:31:32.124Z,99196.88
2022-09-15T10:34:36.334Z,99192.78
2022-09-15T10:38:00.907Z,99191.66
2022-09-15T10:41:23.386Z,99181.81
2022-09-15T10:45:01.597Z,99180.44
2022-09-15T10:48:24.844Z,99181.31
2022-09-15T10:52:03.020Z,99187.44
2022-09-15T10:55:48.944Z,99190.56
2022-09-15T10:59:15.221Z,99181.97
2022-09-15T11:03:03.776Z,99178.25
2022-09-15T11:06:21.320Z,99182.88
2022-09-15T11:09:48.606Z,99171.16
2022-09-15T11:13:16.108Z,99168.28
2022-09-15T11:16:52.233Z,99162.25
2022-09-15T11:20:13.039Z,99158.88
2022-09-15T11:23:37.806Z,99151.72
2022-09-15T11:26:44.611Z,99150.62
2022-09-15T11:29:47.452Z,99154.72
2022-09-15T11:33:04.393Z,99138.13
2022-09-15T11:36:14.512Z,99136.53
2022-09-15T11:39:21.318Z,99132.03
2022-09-15T11:42:26.416Z,99141.09
2022-09-15T11:45:32.868Z,99147.53
2022-09-15T11:48:42.223Z,99146.41
2022-09-15T11:51:52.846Z,99146.44
2022-09-15T11:55:31.684Z,99146.69
2022-09-15T11:58:45.283Z,99146.19
2022-09-15T12:01:48.628Z,99143.19
2022-09-15T12:05:17.450Z,99148.09
2022-09-15T12:08:34.484Z,99148.75
2022-09-15T12:11:44.658Z,99140.25
2022-09-15T12:14:48.884Z,99146.13
2022-09-15T12:18:27.292Z,99151.38
2022-09-15T12:21:44.608Z,99154.13
2022-09-15T12:25:01.158Z,99168.44
2022-09-15T12:28:22.747Z,99173.25
2022-09-15T12:31:41.209Z,99175.88
2022-09-15T12:34:56.212Z,99169.47
2022-09-15T12:37:59.870Z,99174.09
2022-09-15T12:41:03.078Z,99169.84
2022-09-15T12:44:15.041Z,99168.72
2022-09-15T12:47:22.110Z,99163.84
2022-09-15T12:50:27.122Z,99168.94
2022-09-15T12:53:31.903Z,99152.72
2022-09-15T12:56:35.145Z,99163.84
2022-09-15T12:59:37.750Z,99160.09
2022-09-15T13:02:45.887Z,99142.94
2022-09-15T13:05:48.345Z,99143.31
2022-09-15T13:09:01.406Z,99146.41
2022-09-15T13:12:04.440Z,99135.22
2022-09-15T13:15:13.579Z,99143.69
2022-09-15T13:18:17.251Z,99128.59
2022-09-15T13:21:21.750Z,99120.84
2022-09-15T13:24:46.893Z,99117.25
2022-09-15T13:27:53.761Z,99109.56
2022-09-15T13:30:58.996Z,99095.88
2022-09-15T13:38:20.197Z,99087.31
2022-09-15T13:41:32.841Z,99080.94
2022-09-15T13:44:47.171Z,99078.84
2022-09-15T13:48:22.979Z,99086.37
2022-09-15T13:51:28.466Z,99068.25
2022-09-15T13:54:31.361Z,99062.91
2022-09-15T14:01:02.248Z,99066.81
2022-09-15T14:04:27.816Z,99070.03
2022-09-15T14:07:30.271Z,99064.94
2022-09-15T14:10:46.005Z,99055.19
2022-09-15T14:13:49.154Z,99062.06
2022-09-15T14:16:52.640Z,99057.81
2022-09-15T14:19:57.296Z,99050.22
2022-09-15T14:23:00.465Z,99043.97
2022-09-15T14:26:02.949Z,99048.72
2022-09-15T14:29:06.635Z,99056.06
2022-09-15T14:32:14.363Z,99080.69
2022-09-15T14:35:20.002Z,99083.78
2022-09-15T14:38:24.773Z,99078.31
2022-09-15T14:41:31.961Z,99081.28
2022-09-15T14:48:06.551Z,99089.16
2022-09-15T14:51:15.843Z,99080.25
2022-09-15T14:54:23.911Z,99079.91
2022-09-15T14:57:30.991Z,99078.94
2022-09-15T15:00:38.537Z,99080.28
2022-09-15T15:03:49.560Z,99080.00
2022-09-15T15:07:03.686Z,99089.22
2022-09-15T15:10:36.045Z,99097.22
2022-09-15T15:13:42.660Z,99096.84
2022-09-15T15:16:58.377Z,99089.09
2022-09-15T15:20:05.919Z,99099.88
2022-09-15T15:23:23.937Z,99094.75
2022-09-15T15:26:29.613Z,99094.00
2022-09-15T15:29:47.012Z,99071.44
2022-09-15T15:32:49.810Z,99080.56
2022-09-15T15:36:07.557Z,99079.78
2022-09-15T15:39:24.702Z,99088.22
2022-09-15T15:42:28.855Z,99094.56
2022-09-15T15:45:34.507Z,99089.72
2022-09-15T15:48:38.343Z,99092.94
2022-09-15T15:51:41.612Z,99079.00
2022-09-15T15:54:43.994Z,99075.94
2022-09-15T15:57:50.149Z,99068.19
2022-09-15T16:00:54.790Z,99082.16
2022-09-15T16:03:57.457Z,99081.66
2022-09-15T16:07:00.411Z,99078.25
2022-09-15T16:10:03.830Z,99076.50
2022-09-15T16:13:06.448Z,99085.47
2022-09-15T16:16:18.306Z,99089.28
2022-09-15T16:19:20.844Z,99078.91
2022-09-15T16:22:23.547Z,99085.28
2022-09-15T16:25:35.241Z,99084.75
2022-09-15T16:28:38.038Z,99094.31
2022-09-15T16:31:40.613Z,99093.31
2022-09-15T16:34:43.440Z,99106.91
2022-09-15T16:37:45.867Z,99115.91
2022-09-15T16:40:51.169Z,99117.78
2022-09-15T16:43:55.816Z,99118.34
2022-09-15T16:46:58.491Z,99111.59
2022-09-15T16:50:01.088Z,99120.28
2022-09-15T16:53:04.271Z,99115.25
2022-09-15T16:56:09.120Z,99114.72
2022-09-15T16:59:12.130Z,99119.47
2022-09-15T17:02:14.940Z,99131.75
2022-09-15T17:05:26.526Z,99139.53
2022-09-15T17:08:31.260Z,99145.16
2022-09-15T17:11:33.960Z,99144.72
2022-09-15T17:14:36.439Z,99151.06
2022-09-15T17:17:39.149Z,99151.22
2022-09-15T17:20:45.971Z,99156.56
2022-09-15T17:23:49.645Z,99154.37
2022-09-15T17:26:52.037Z,99151.44
2022-09-15T17:29:54.802Z,99145.06
2022-09-15T17:33:10.273Z,99152.97
2022-09-15T17:36:13.308Z,99146.06
2022-09-15T17:39:15.718Z,99149.44
2022-09-15T17:42:20.170Z,99146.31
2022-09-15T17:45:34.626Z,99163.44
2022-09-15T17:48:38.925Z,99155.78
2022-09-15T17:51:41.333Z,99159.16
2022-09-15T17:54:44.212Z,99168.44
2022-09-15T17:57:47.531Z,99166.03
2022-09-15T18:00:50.954Z,99171.28
2022-09-15T18:03:53.646Z,99167.00
2022-09-15T18:06:56.049Z,99162.78
2022-09-15T18:09:58.767Z,99168.25
2022-09-15T18:13:01.607Z,99165.41
2022-09-15T18:16:06.462Z,99160.34
2022-09-15T18:19:08.964Z,99158.03
2022-09-15T18:22:13.171Z,99152.50
2022-09-15T18:25:25.509Z,99155.06
2022-09-15T18:28:28.233Z,99149.47
2022-09-15T18:31:30.747Z,99148.53
2022-09-15T18:34:33.560Z,99137.78
2022-09-15T18:37:36.942Z,99133.03
2022-09-15T18:40:45.434Z,99140.06
2022-09-15T18:43:50.754Z,99144.06
2022-09-15T18:46:53.408Z,99155.75
2022-09-15T18:49:55.811Z,99159.94
2022-09-15T18:52:58.446Z,99155.19
2022-09-15T18:56:00.903Z,99154.81
2022-09-15T18:59:03.740Z,99150.41
2022-09-15T19:02:06.480Z,99137.28
2022-09-15T19:05:15.324Z,99150.91
2022-09-15T19:08:17.916Z,99161.09
2022-09-15T19:11:20.781Z,99164.41
2022-09-15T19:14:23.291Z,99170.22
2022-09-15T19:17:25.981Z,99183.16
2022-09-15T19:20:29.922Z,99198.91
2022-09-15T19:23:32.637Z,99225.41
2022-09-15T19:26:35.093Z,99231.28
2022-09-15T19:29:38.661Z,99239.72
2022-09-15T19:32:41.607Z,99252.03
2022-09-15T19:35:44.385Z,99271.53
2022-09-15T19:38:46.751Z,99271.88
2022-09-15T19:41:49.666Z,99272.25
2022-09-15T19:44:52.131Z,99267.31
2022-09-15T19:47:54.867Z,99265.47
2022-09-15T19:50:57.272Z,99254.34
2022-09-15T19:54:00.243Z,99269.78
2022-09-15T19:57:02.862Z,99269.97
2022-09-15T20:00:06.700Z,99261.78
2022-09-15T20:03:09.936Z,99268.28
2022-09-15T20:06:12.296Z,99283.66
2022-09-15T20:09:15.222Z,99281.16
2022-09-15T20:12:17.809Z,99280.94
2022-09-15T20:15:20.486Z,99287.34
2022-09-15T20:18:23.455Z,99279.97
2022-09-15T20:21:49.238Z,99279.31
2022-09-15T20:24:52.974Z,99284.13
2022-09-15T20:27:55.692Z,99276.31
2022-09-15T20:31:22.591Z,99279.47
2022-09-15T20:34:25.299Z,99290.59
2022-09-15T20:37:27.729Z,99293.41
2022-09-15T20:40:31.109Z,99289.63
2022-09-15T20:43:36.840Z,99299.56
2022-09-15T20:46:39.765Z,99291.13
2022-09-15T20:49:42.200Z,99294.75
2022-09-15T20:52:44.815Z,99300.09
2022-09-15T20:55:50.648Z,99293.78
2022-09-15T20:58:54.994Z,99306.31
2022-09-15T21:01:57.507Z,99302.47
2022-09-15T21:05:00.214Z,99307.81
2022-09-15T21:08:02.631Z,99307.66
2022-09-15T21:11:07.290Z,99317.09
2022-09-15T21:14:15.528Z,99316.84
2022-09-15T21:17:18.265Z,99328.78
2022-09-15T21:20:23.725Z,99335.75
2022-09-15T21:23:34.880Z,99347.94
2022-09-15T21:26:58.280Z,99355.47
2022-09-15T21:30:00.892Z,99354.78
2022-09-15T21:33:03.281Z,99352.22
2022-09-15T21:36:14.644Z,99357.81
2022-09-15T21:39:17.183Z,99362.47
2022-09-15T21:42:19.878Z,99348.56
2022-09-15T21:45:22.555Z,99356.19
2022-09-15T21:48:27.184Z,99378.03
2022-09-15T21:51:30.968Z,99378.28
2022-09-15T21:54:33.607Z,99388.03
2022-09-15T21:57:36.257Z,99379.47
2022-09-15T22:00:40.381Z,99388.75
2022-09-15T22:03:43.276Z,99394.53
2022-09-15T22:06:46.867Z,99402.75
2022-09-15T22:09:49.830Z,99407.37
2022-09-15T22:12:52.797Z,99424.81
2022-09-15T22:16:02.854Z,99439.69
2022-09-15T22:19:07.193Z,99442.94
2022-09-15T22:22:09.902Z,99446.69
2022-09-15T22:25:19.775Z,99454.53
2022-09-15T22:28:24.358Z,99463.00
2022-09-15T22:31:30.584Z,99470.56
2022-09-15T22:34:33.257Z,99463.81
2022-09-15T22:37:35.738Z,99482.78
2022-09-15T22:40:38.486Z,99478.38
2022-09-15T22:43:43.811Z,99504.06
2022-09-15T22:46:46.792Z,99516.81
2022-09-15T22:49:49.205Z,99517.25
2022-09-15T22:52:52.321Z,99509.50
2022-09-15T22:56:06.725Z,99506.25
2022-09-15T22:59:09.781Z,99498.81
2022-09-15T23:02:12.278Z,99486.62
2022-09-15T23:05:14.988Z,99484.25
2022-09-15T23:08:17.435Z,99475.75
2022-09-15T23:11:20.817Z,99498.63
2022-09-15T23:14:23.891Z,99494.16
2022-09-15T23:17:27.449Z,99494.75
2022-09-15T23:20:29.904Z,99511.97
2022-09-15T23:23:32.735Z,99530.16
2022-09-15T23:26:35.135Z,99531.03
2022-09-15T23:29:37.823Z,99530.16
2022-09-15T23:32:40.217Z,99523.72
2022-09-15T23:35:42.868Z,99531.50
2022-09-15T23:38:45.939Z,99527.09
2022-09-15T23:41:48.632Z,99543.50
2022-09-15T23:44:51.046Z,99550.13
2022-09-15T23:47:53.692Z,99557.47
2022-09-15T23:50:56.235Z,99568.50
2022-09-15T23:53:58.885Z,99568.94
2022-09-15T23:57:01.244Z,99567.31
